Weather at Las Araucarias Airport

Public forecast

Using degrees Celsius for public forecast. Weather courtesy of forecast.io.

Closest aviation weather report (METAR) to Las Araucarias Airport

Closest report is Cañal Bajo Carlos - Hott Siebert Airport, 29.3 nm (54.3 km) NW. Retrieved 2020/09/20 06:00 UTC (60 minutes ago):

SCJO 200600Z AUTO VRB02KT CAVOK 04/02 Q1024

Closest aviation forecast (TAF) to Las Araucarias Airport

Forecast is more than 12 hours old.

Closest forecast is Cañal Bajo Carlos - Hott Siebert Airport, 29.3 nm (54.3 km) NW. Retrieved 2020/09/19 12:00 UTC (19 hours ago):

TAF SCJO 191025Z 1912/2000 19007KT 9999 BKN025 TN04/1913Z TX13/1918Z BECMG 1916/1918 CAVOK